Time;durP1;ratioP1;P1;durP2;ratioP2;P2;SDS_P1;SDS_P2;PMS_P1;PMS_P2;Temp;Humidity;BMP_temperature;BMP_pressure;BME280_temperature;BME280_humidity;BME280_pressure;Samples;Min_cycle;Max_cycle;Signal;HPM_P1;HPM_P2
2023/01/09 00:02:08;;;;;;;;;;;;;;;;;;5106597;28;19930;-54
2023/01/09 00:04:34;;;;;;;;;;;;;;;;;;5106229;28;19924;-53
2023/01/09 00:07:00;;;;;;;;;;;;;;;;;;5107138;28;20407;-50
2023/01/09 00:09:26;;;;;;;;;;;;;;;;;;5106409;28;19923;-52
2023/01/09 00:11:53;;;;;;;;;;;;;;;;;;5106327;28;19924;-54
2023/01/09 00:14:21;;;;;;;;;;;;;;;;;;5105687;28;19927;-51
2023/01/09 00:16:47;;;;;;;;;;;;;;;;;;5105502;28;19927;-54
2023/01/09 00:19:13;;;;;;;;;;;;;;;;;;5106112;28;20402;-49
2023/01/09 00:21:39;;;;;;;;;;;;;;;;;;5106253;28;19953;-56
2023/01/09 00:24:05;;;;;;;;;;;;;;;;;;5106429;28;19924;-48
2023/01/09 00:26:31;;;;;;;;;;;;;;;;;;5105913;28;19958;-52
2023/01/09 00:28:57;;;;;;;;;;;;;;;;;;5105703;28;20002;-54
2023/01/09 00:31:23;;;;;;;;;;;;;;;;;;5106020;28;19928;-51
2023/01/09 00:33:49;;;;;;;;;;;;;;;;;;5104161;28;19954;-51
2023/01/09 00:36:15;;;;;;;;;;;;;;;;;;5106172;28;19924;-55
2023/01/09 00:38:41;;;;;;;;;;;;;;;;;;5105895;28;19931;-54
2023/01/09 00:41:07;;;;;;;;;;;;;;;;;;5105705;28;20391;-49
2023/01/09 00:43:33;;;;;;;;;;;;;;;;;;5104394;28;20637;-53
2023/01/09 00:45:59;;;;;;;;;;;;;;;;;;5105740;28;19923;-55
2023/01/09 00:48:26;;;;;;;;;;;;;;;;;;5106235;28;19948;-52
2023/01/09 00:50:52;;;;;;;;;;;;;;;;;;5103646;28;19928;-55
2023/01/09 00:53:18;;;;;;;;;;;;;;;;;;5106010;28;19928;-55
2023/01/09 00:55:44;;;;;;;;;;;;;;;;;;5105377;28;20278;-53
2023/01/09 00:58:10;;;;;;;;;;;;;;;;;;5104732;28;20426;-51
2023/01/09 01:00:36;;;;;;;;;;;;;;;;;;5105390;28;19931;-56
2023/01/09 01:03:02;;;;;;;;;;;;;;;;;;5105946;28;19923;-56
2023/01/09 01:08:13;;;;;;;;;;;;;;;;;;5087040;28;19977;-55
2023/01/09 01:10:39;;;;;;;;;;;;;;;;;;5105579;28;19923;-55
2023/01/09 01:13:04;;;;;;;;;;;;;;;;;;5104456;28;19924;-54
2023/01/09 01:15:30;;;;;;;;;;;;;;;;;;5105164;28;20031;-49
2023/01/09 01:17:57;;;;;;;;;;;;;;;;;;5105874;28;19924;-53
2023/01/09 01:20:23;;;;;;;;;;;;;;;;;;5105579;28;19978;-49
2023/01/09 01:22:49;;;;;;;;;;;;;;;;;;5104407;28;20007;-52
2023/01/09 01:25:15;;;;;;;;;;;;;;;;;;5105021;28;20423;-55
2023/01/09 01:27:41;;;;;;;;;;;;;;;;;;5105113;28;20557;-54
2023/01/09 01:30:07;;;;;;;;;;;;;;;;;;5104880;28;20418;-53
2023/01/09 01:32:33;;;;;;;;;;;;;;;;;;5104808;28;19972;-52
2023/01/09 01:34:59;;;;;;;;;;;;;;;;;;5104844;28;19997;-55
2023/01/09 01:37:26;;;;;;;;;;;;;;;;;;5105597;28;19920;-49
2023/01/09 01:39:52;;;;;;;;;;;;;;;;;;5103667;28;19924;-50
2023/01/09 01:42:18;;;;;;;;;;;;;;;;;;5104789;28;19949;-54
2023/01/09 01:44:44;;;;;;;;;;;;;;;;;;5104324;28;19995;-52
2023/01/09 01:47:10;;;;;;;;;;;;;;;;;;5098833;28;20023;-55
2023/01/09 01:49:36;;;;;;;;;;;;;;;;;;5084377;28;19947;-53
2023/01/09 01:52:02;;;;;;;;;;;;;;;;;;5088086;28;20458;-54
2023/01/09 01:54:28;;;;;;;;;;;;;;;;;;5102651;28;19923;-52
2023/01/09 01:56:55;;;;;;;;;;;;;;;;;;5090220;28;19946;-51
2023/01/09 01:59:21;;;;;;;;;;;;;;;;;;5104107;28;19930;-53
2023/01/09 02:01:47;;;;;;;;;;;;;;;;;;5106771;28;19924;-52
2023/01/09 02:04:13;;;;;;;;;;;;;;;;;;5101788;28;20517;-50
2023/01/09 02:06:39;;;;;;;;;;;;;;;;;;5100920;28;20367;-53
2023/01/09 02:09:05;;;;;;;;;;;;;;;;;;5147112;22;20408;-51
2023/01/09 02:11:31;;;;;;;;;;;;;;;;;;5068396;28;19928;-51
2023/01/09 02:13:57;;;;;;;;;;;;;;;;;;5067357;28;19935;-53
2023/01/09 02:16:23;;;;;;;;;;;;;;;;;;5068758;28;20395;-53
2023/01/09 02:18:51;;;;;;;;;;;;;;;;;;5068155;28;19935;-52
2023/01/09 02:21:18;;;;;;;;;;;;;;;;;;5068389;28;19967;-52
2023/01/09 02:23:44;;;;;;;;;;;;;;;;;;5067759;28;20675;-52
2023/01/09 02:26:10;;;;;;;;;;;;;;;;;;5068354;28;19924;-52
2023/01/09 02:28:36;;;;;;;;;;;;;;;;;;5067304;28;20293;-49
2023/01/09 02:31:02;;;;;;;;;;;;;;;;;;5067843;28;19936;-57
2023/01/09 02:33:28;;;;;;;;;;;;;;;;;;5068293;28;20028;-53
2023/01/09 02:35:54;;;;;;;;;;;;;;;;;;5068233;28;20422;-51
2023/01/09 02:38:20;;;;;;;;;;;;;;;;;;5067688;28;19934;-49
2023/01/09 02:40:46;;;;;;;;;;;;;;;;;;5067602;28;19931;-54
2023/01/09 02:43:12;;;;;;;;;;;;;;;;;;5067393;28;19936;-51
2023/01/09 02:45:38;;;;;;;;;;;;;;;;;;5067226;28;19978;-52
2023/01/09 02:48:04;;;;;;;;;;;;;;;;;;5067522;28;20378;-56
2023/01/09 02:50:30;;;;;;;;;;;;;;;;;;5067492;28;20007;-53
2023/01/09 02:52:56;;;;;;;;;;;;;;;;;;5067749;28;20011;-49
2023/01/09 02:55:23;;;;;;;;;;;;;;;;;;5067752;28;20296;-53
2023/01/09 02:57:49;;;;;;;;;;;;;;;;;;5066256;28;20023;-52
2023/01/09 03:00:15;;;;;;;;;;;;;;;;;;5067611;28;20016;-50
2023/01/09 03:02:41;;;;;;;;;;;;;;;;;;5067510;28;20023;-52
2023/01/09 03:05:07;;;;;;;;;;;;;;;;;;5067593;28;20433;-54
2023/01/09 03:07:33;;;;;;;;;;;;;;;;;;5066675;28;19924;-51
2023/01/09 03:09:59;;;;;;;;;;;;;;;;;;5049390;28;20392;-57
2023/01/09 03:12:25;;;;;;;;;;;;;;;;;;5067199;28;19925;-55
2023/01/09 03:14:51;;;;;;;;;;;;;;;;;;5066350;28;19928;-56
2023/01/09 03:17:17;;;;;;;;;;;;;;;;;;5067083;28;20440;-50
2023/01/09 03:19:43;;;;;;;;;;;;;;;;;;5066806;28;19924;-53
2023/01/09 03:22:09;;;;;;;;;;;;;;;;;;5066973;28;19928;-55
2023/01/09 03:24:35;;;;;;;;;;;;;;;;;;5066727;28;20015;-53
2023/01/09 03:27:01;;;;;;;;;;;;;;;;;;5066725;28;19924;-51
2023/01/09 03:29:27;;;;;;;;;;;;;;;;;;5048620;28;19924;-52
2023/01/09 03:31:53;;;;;;;;;;;;;;;;;;5067136;28;19954;-50
2023/01/09 03:34:19;;;;;;;;;;;;;;;;;;5066808;28;20006;-51
2023/01/09 03:36:45;;;;;;;;;;;;;;;;;;5066270;28;20302;-54
2023/01/09 03:39:11;;;;;;;;;;;;;;;;;;5067395;28;19977;-53
2023/01/09 03:41:37;;;;;;;;;;;;;;;;;;5066121;28;19930;-48
2023/01/09 03:44:03;;;;;;;;;;;;;;;;;;5065750;28;19931;-53
2023/01/09 03:46:29;;;;;;;;;;;;;;;;;;5066360;28;20389;-56
2023/01/09 03:48:55;;;;;;;;;;;;;;;;;;5066851;28;19925;-49
2023/01/09 03:51:21;;;;;;;;;;;;;;;;;;5066297;28;19924;-53
2023/01/09 03:53:47;;;;;;;;;;;;;;;;;;5066236;28;19955;-52
2023/01/09 03:56:13;;;;;;;;;;;;;;;;;;5066883;28;20029;-53
2023/01/09 03:58:39;;;;;;;;;;;;;;;;;;5064945;28;20482;-49
2023/01/09 04:01:11;;;;;;;;;;;;;;;;;;5066161;28;19971;-54
2023/01/09 04:03:37;;;;;;;;;;;;;;;;;;5066131;28;19924;-52
2023/01/09 04:06:03;;;;;;;;;;;;;;;;;;5066454;28;19973;-53
2023/01/09 04:08:29;;;;;;;;;;;;;;;;;;5065767;28;20286;-56
2023/01/09 04:10:55;;;;;;;;;;;;;;;;;;5066761;28;19960;-53
2023/01/09 04:13:21;;;;;;;;;;;;;;;;;;5065725;28;19975;-56
2023/01/09 04:15:47;;;;;;;;;;;;;;;;;;5064590;28;20319;-56
2023/01/09 04:18:13;;;;;;;;;;;;;;;;;;5065665;28;19924;-53
2023/01/09 04:20:39;;;;;;;;;;;;;;;;;;5065650;28;19994;-52
2023/01/09 04:23:05;;;;;;;;;;;;;;;;;;5066094;28;20386;-51
2023/01/09 04:25:31;;;;;;;;;;;;;;;;;;5065235;28;19947;-49
2023/01/09 04:27:57;;;;;;;;;;;;;;;;;;5065358;28;19924;-55
2023/01/09 04:30:23;;;;;;;;;;;;;;;;;;5066129;28;19925;-53
2023/01/09 04:32:50;;;;;;;;;;;;;;;;;;5047271;28;19974;-56
2023/01/09 04:35:16;;;;;;;;;;;;;;;;;;5066177;28;20026;-52
2023/01/09 04:37:42;;;;;;;;;;;;;;;;;;5065693;28;19936;-53
2023/01/09 04:40:09;;;;;;;;;;;;;;;;;;5065731;28;20343;-52
2023/01/09 04:42:35;;;;;;;;;;;;;;;;;;5064710;28;20411;-55
2023/01/09 04:45:01;;;;;;;;;;;;;;;;;;5065853;28;19924;-53
2023/01/09 04:47:27;;;;;;;;;;;;;;;;;;5065851;28;20270;-54
2023/01/09 04:49:53;;;;;;;;;;;;;;;;;;5064963;28;20325;-51
2023/01/09 04:52:19;;;;;;;;;;;;;;;;;;5065024;28;20374;-53
2023/01/09 04:54:45;;;;;;;;;;;;;;;;;;5065392;28;19930;-55
2023/01/09 04:57:11;;;;;;;;;;;;;;;;;;5065640;28;19925;-51
2023/01/09 04:59:37;;;;;;;;;;;;;;;;;;5064518;28;20478;-49
2023/01/09 05:02:03;;;;;;;;;;;;;;;;;;5065533;28;19932;-53
2023/01/09 05:04:29;;;;;;;;;;;;;;;;;;5065587;28;20329;-56
2023/01/09 05:06:55;;;;;;;;;;;;;;;;;;5065973;28;19924;-54
2023/01/09 05:09:21;;;;;;;;;;;;;;;;;;5064733;28;20017;-50
2023/01/09 05:11:47;;;;;;;;;;;;;;;;;;5065380;28;19935;-49
2023/01/09 05:14:13;;;;;;;;;;;;;;;;;;5064896;28;19925;-55
2023/01/09 05:16:39;;;;;;;;;;;;;;;;;;5064685;28;19924;-53
2023/01/09 05:19:05;;;;;;;;;;;;;;;;;;5065409;28;19960;-53
2023/01/09 05:21:31;;;;;;;;;;;;;;;;;;5065565;28;19974;-52
2023/01/09 05:23:57;;;;;;;;;;;;;;;;;;5065168;28;19924;-54
2023/01/09 05:26:23;;;;;;;;;;;;;;;;;;5063548;28;19932;-51
2023/01/09 05:28:50;;;;;;;;;;;;;;;;;;5058452;28;19929;-50
2023/01/09 05:31:16;;;;;;;;;;;;;;;;;;5046653;28;20002;-52
2023/01/09 05:33:42;;;;;;;;;;;;;;;;;;5051752;28;20374;-55
2023/01/09 05:36:08;;;;;;;;;;;;;;;;;;5047370;28;19933;-55
2023/01/09 05:38:34;;;;;;;;;;;;;;;;;;5053923;28;19933;-46
2023/01/09 05:41:00;;;;;;;;;;;;;;;;;;5068236;28;19977;-51
2023/01/09 05:43:26;;;;;;;;;;;;;;;;;;5067568;28;19928;-53
2023/01/09 05:45:52;;;;;;;;;;;;;;;;;;5060803;28;19924;-52
2023/01/09 05:48:18;;;;;;;;;;;;;;;;;;5068541;28;19996;-50
2023/01/09 05:50:44;;;;;;;;;;;;;;;;;;5067868;28;19931;-52
2023/01/09 05:53:10;;;;;;;;;;;;;;;;;;5068392;28;20373;-48
2023/01/09 05:55:36;;;;;;;;;;;;;;;;;;5067449;28;19924;-48
2023/01/09 05:58:02;;;;;;;;;;;;;;;;;;5067834;28;19986;-50
2023/01/09 06:00:28;;;;;;;;;;;;;;;;;;5068286;28;20403;-51
2023/01/09 06:02:54;;;;;;;;;;;;;;;;;;5067728;28;19928;-52
2023/01/09 06:05:20;;;;;;;;;;;;;;;;;;5068444;28;19920;-54
2023/01/09 06:07:46;;;;;;;;;;;;;;;;;;5066809;28;20404;-55
2023/01/09 06:10:12;;;;;;;;;;;;;;;;;;5068550;28;19924;-49
2023/01/09 06:12:38;;;;;;;;;;;;;;;;;;5067645;28;19925;-53
2023/01/09 06:15:04;;;;;;;;;;;;;;;;;;5050871;28;19928;-55
2023/01/09 06:17:30;;;;;;;;;;;;;;;;;;5068097;28;19931;-53
2023/01/09 06:19:56;;;;;;;;;;;;;;;;;;5068618;28;19928;-51
2023/01/09 06:22:22;;;;;;;;;;;;;;;;;;5068586;28;19929;-55
2023/01/09 06:24:48;;;;;;;;;;;;;;;;;;5068677;28;19920;-51
2023/01/09 06:27:14;;;;;;;;;;;;;;;;;;5067087;28;20427;-54
2023/01/09 06:29:40;;;;;;;;;;;;;;;;;;5068106;28;19924;-56
2023/01/09 06:32:06;;;;;;;;;;;;;;;;;;5048183;28;21016;-52
2023/01/09 06:34:32;;;;;;;;;;;;;;;;;;5066671;28;19924;-52
2023/01/09 06:36:58;;;;;;;;;;;;;;;;;;5067135;28;20324;-53
2023/01/09 06:39:24;;;;;;;;;;;;;;;;;;5066914;28;19928;-55
2023/01/09 06:41:50;;;;;;;;;;;;;;;;;;5067521;28;19925;-52
2023/01/09 06:44:16;;;;;;;;;;;;;;;;;;5066231;28;19931;-51
2023/01/09 06:46:42;;;;;;;;;;;;;;;;;;5067232;28;19929;-53
2023/01/09 06:49:08;;;;;;;;;;;;;;;;;;5065212;28;19925;-54
2023/01/09 06:51:34;;;;;;;;;;;;;;;;;;5064577;28;20445;-54
2023/01/09 06:54:00;;;;;;;;;;;;;;;;;;5066562;28;19924;-51
2023/01/09 06:56:26;;;;;;;;;;;;;;;;;;5066654;28;19960;-50
2023/01/09 06:58:52;;;;;;;;;;;;;;;;;;5065162;28;19925;-53
2023/01/09 07:01:18;;;;;;;;;;;;;;;;;;5066387;28;19931;-55
2023/01/09 07:03:45;;;;;;;;;;;;;;;;;;5065794;28;19932;-50
2023/01/09 07:06:11;;;;;;;;;;;;;;;;;;5066239;28;20441;-53
2023/01/09 07:08:37;;;;;;;;;;;;;;;;;;5065349;28;20003;-51
2023/01/09 07:11:03;;;;;;;;;;;;;;;;;;5066779;28;19924;-52
2023/01/09 07:13:29;;;;;;;;;;;;;;;;;;5065930;28;19989;-54
2023/01/09 07:15:55;;;;;;;;;;;;;;;;;;5066092;28;19924;-52
2023/01/09 07:18:21;;;;;;;;;;;;;;;;;;5066946;28;19924;-53
2023/01/09 07:20:48;;;;;;;;;;;;;;;;;;5066561;28;19937;-48
2023/01/09 07:23:14;;;;;;;;;;;;;;;;;;5065978;28;20024;-47
2023/01/09 07:25:40;;;;;;;;;;;;;;;;;;5065946;28;20420;-52
2023/01/09 07:28:06;;;;;;;;;;;;;;;;;;5065856;28;19950;-54
2023/01/09 07:30:32;;;;;;;;;;;;;;;;;;5066226;28;19931;-48
2023/01/09 07:32:58;;;;;;;;;;;;;;;;;;5066527;28;19927;-52
2023/01/09 07:35:24;;;;;;;;;;;;;;;;;;5066390;28;20051;-55
2023/01/09 07:37:50;;;;;;;;;;;;;;;;;;5065627;28;19921;-51
2023/01/09 07:40:16;;;;;;;;;;;;;;;;;;5065251;28;19924;-55
2023/01/09 07:42:42;;;;;;;;;;;;;;;;;;5065501;28;19928;-53
2023/01/09 07:45:08;;;;;;;;;;;;;;;;;;5066193;28;20396;-53
2023/01/09 07:47:34;;;;;;;;;;;;;;;;;;5065681;28;20419;-49
2023/01/09 07:50:00;;;;;;;;;;;;;;;;;;5066218;28;19925;-54
2023/01/09 07:52:26;;;;;;;;;;;;;;;;;;5066064;28;19951;-54
2023/01/09 07:54:52;;;;;;;;;;;;;;;;;;5065937;28;19978;-50
2023/01/09 07:57:18;;;;;;;;;;;;;;;;;;5065136;28;19929;-51
2023/01/09 07:59:44;;;;;;;;;;;;;;;;;;5065463;28;20426;-52
2023/01/09 08:02:11;;;;;;;;;;;;;;;;;;5065438;28;19930;-53
2023/01/09 08:04:37;;;;;;;;;;;;;;;;;;5065371;28;19939;-51
2023/01/09 08:07:03;;;;;;;;;;;;;;;;;;5065351;28;20289;-53
2023/01/09 08:09:29;;;;;;;;;;;;;;;;;;5065018;28;19925;-55
2023/01/09 08:11:56;;;;;;;;;;;;;;;;;;5065328;28;20023;-53
2023/01/09 08:14:22;;;;;;;;;;;;;;;;;;5065264;28;20448;-52
2023/01/09 08:16:48;;;;;;;;;;;;;;;;;;5065717;28;19932;-54
2023/01/09 08:19:14;;;;;;;;;;;;;;;;;;5065522;28;19928;-49
2023/01/09 08:21:40;;;;;;;;;;;;;;;;;;5065037;28;19924;-53
2023/01/09 08:24:06;;;;;;;;;;;;;;;;;;5065312;28;20370;-54
2023/01/09 08:26:32;;;;;;;;;;;;;;;;;;5065070;28;19924;-56
2023/01/09 08:28:58;;;;;;;;;;;;;;;;;;5065275;28;19921;-48
2023/01/09 08:31:24;;;;;;;;;;;;;;;;;;5066260;28;19924;-50
2023/01/09 08:33:50;;;;;;;;;;;;;;;;;;5065871;28;19925;-51
2023/01/09 08:36:16;;;;;;;;;;;;;;;;;;5065771;28;20389;-53
2023/01/09 08:38:42;;;;;;;;;;;;;;;;;;5065136;28;19932;-53
2023/01/09 08:49:27;;;;;;;;;;;;;;;;;;5064529;28;20020;-54
2023/01/09 08:51:53;;;;;;;;;;;;;;;;;;5064247;28;20573;-53
2023/01/09 08:54:19;;;;;;;;;;;;;;;;;;5064294;28;19929;-53
2023/01/09 08:56:45;;;;;;;;;;;;;;;;;;5064113;28;19943;-49
2023/01/09 08:59:11;;;;;;;;;;;;;;;;;;5064506;28;19925;-53
2023/01/09 09:01:37;;;;;;;;;;;;;;;;;;5064429;28;19952;-53
2023/01/09 09:04:04;;;;;;;;;;;;;;;;;;5065129;28;19947;-54
2023/01/09 09:06:30;;;;;;;;;;;;;;;;;;5064674;28;19931;-53
2023/01/09 09:08:56;;;;;;;;;;;;;;;;;;5065017;28;19994;-51
2023/01/09 09:11:22;;;;;;;;;;;;;;;;;;5046727;28;19933;-54
2023/01/09 09:13:48;;;;;;;;;;;;;;;;;;5063471;28;19928;-48
2023/01/09 09:16:14;;;;;;;;;;;;;;;;;;5064303;28;20569;-49
2023/01/09 09:18:40;;;;;;;;;;;;;;;;;;5063836;28;19928;-52
2023/01/09 09:21:06;;;;;;;;;;;;;;;;;;5064902;28;19931;-51
2023/01/09 09:23:32;;;;;;;;;;;;;;;;;;5064336;28;19924;-49
2023/01/09 09:25:58;;;;;;;;;;;;;;;;;;5065053;28;19920;-54
2023/01/09 09:28:24;;;;;;;;;;;;;;;;;;5064344;28;19924;-53
2023/01/09 09:30:50;;;;;;;;;;;;;;;;;;5064561;28;19966;-50
2023/01/09 09:33:16;;;;;;;;;;;;;;;;;;5064617;28;19946;-53
2023/01/09 09:35:42;;;;;;;;;;;;;;;;;;5046555;28;20636;-52
2023/01/09 09:38:08;;;;;;;;;;;;;;;;;;5064384;28;19921;-52
2023/01/09 09:40:34;;;;;;;;;;;;;;;;;;5064265;28;19925;-49
2023/01/09 09:45:45;;;;;;;;;;;;;;;;;;5064541;28;19931;-53
2023/01/09 09:48:11;;;;;;;;;;;;;;;;;;5064790;28;19931;-51
2023/01/09 09:50:37;;;;;;;;;;;;;;;;;;5063867;28;19924;-54
2023/01/09 09:53:03;;;;;;;;;;;;;;;;;;5064188;28;19924;-53
2023/01/09 09:55:29;;;;;;;;;;;;;;;;;;5064596;28;20315;-55
2023/01/09 09:57:56;;;;;;;;;;;;;;;;;;5063985;28;19966;-54
2023/01/09 10:00:22;;;;;;;;;;;;;;;;;;5063552;28;19935;-54
2023/01/09 10:02:49;;;;;;;;;;;;;;;;;;5064141;28;19928;-52
2023/01/09 10:05:15;;;;;;;;;;;;;;;;;;5064491;28;19935;-54
2023/01/09 10:07:41;;;;;;;;;;;;;;;;;;5063782;28;19924;-51
2023/01/09 10:10:07;;;;;;;;;;;;;;;;;;5064156;28;19924;-53
2023/01/09 10:12:33;;;;;;;;;;;;;;;;;;5063126;28;20067;-49
2023/01/09 10:14:59;;;;;;;;;;;;;;;;;;5064054;28;19970;-54
2023/01/09 10:17:27;;;;;;;;;;;;;;;;;;5063558;28;21360;-51
2023/01/09 10:19:53;;;;;;;;;;;;;;;;;;5064193;28;19924;-51
2023/01/09 10:22:19;;;;;;;;;;;;;;;;;;5063891;28;19928;-52
2023/01/09 10:24:45;;;;;;;;;;;;;;;;;;5066890;28;20413;-51
2023/01/09 10:27:11;;;;;;;;;;;;;;;;;;5066681;28;19924;-54
2023/01/09 10:29:37;;;;;;;;;;;;;;;;;;5067368;28;19925;-50
2023/01/09 10:32:03;;;;;;;;;;;;;;;;;;5067426;28;20015;-52
2023/01/09 10:34:29;;;;;;;;;;;;;;;;;;5067295;28;20136;-57
2023/01/09 10:36:55;;;;;;;;;;;;;;;;;;5067857;28;20372;-54
2023/01/09 10:39:21;;;;;;;;;;;;;;;;;;5067241;28;20445;-51
2023/01/09 10:41:47;;;;;;;;;;;;;;;;;;5066294;28;19924;-52
2023/01/09 10:44:14;;;;;;;;;;;;;;;;;;5067645;28;20482;-54
2023/01/09 10:46:40;;;;;;;;;;;;;;;;;;5067252;28;19932;-55
2023/01/09 10:49:06;;;;;;;;;;;;;;;;;;5066676;28;19970;-51
2023/01/09 10:51:32;;;;;;;;;;;;;;;;;;5066614;28;19924;-54
2023/01/09 10:53:58;;;;;;;;;;;;;;;;;;5067597;28;19933;-50
2023/01/09 10:56:24;;;;;;;;;;;;;;;;;;5066574;28;20427;-51
2023/01/09 10:58:50;;;;;;;;;;;;;;;;;;5066779;28;19944;-54
2023/01/09 11:01:16;;;;;;;;;;;;;;;;;;5067348;28;19947;-52
2023/01/09 11:03:42;;;;;;;;;;;;;;;;;;5066884;28;19924;-52
2023/01/09 11:06:08;;;;;;;;;;;;;;;;;;5067122;28;20050;-47
2023/01/09 11:08:34;;;;;;;;;;;;;;;;;;5066501;28;20015;-54
2023/01/09 11:11:00;;;;;;;;;;;;;;;;;;5066595;28;19925;-55
2023/01/09 11:13:28;;;;;;;;;;;;;;;;;;5066219;28;19927;-54
2023/01/09 11:15:54;;;;;;;;;;;;;;;;;;5066884;28;19974;-53
2023/01/09 11:18:20;;;;;;;;;;;;;;;;;;5067224;28;19968;-54
2023/01/09 11:20:46;;;;;;;;;;;;;;;;;;5066362;28;20409;-50
2023/01/09 11:23:12;;;;;;;;;;;;;;;;;;5066369;28;19924;-51
2023/01/09 11:25:38;;;;;;;;;;;;;;;;;;5048632;28;20397;-51
2023/01/09 11:28:04;;;;;;;;;;;;;;;;;;5066080;28;19924;-52
2023/01/09 11:30:30;;;;;;;;;;;;;;;;;;5066154;28;19931;-52
2023/01/09 11:32:56;;;;;;;;;;;;;;;;;;5066401;28;19988;-55
2023/01/09 11:35:22;;;;;;;;;;;;;;;;;;5065204;28;19978;-54
2023/01/09 11:37:48;;;;;;;;;;;;;;;;;;5065850;28;19955;-52
2023/01/09 11:40:14;;;;;;;;;;;;;;;;;;5066041;28;19968;-52
2023/01/09 11:42:52;;;;;;;;;;;;;;;;;;5065711;28;20019;-55
2023/01/09 11:45:18;;;;;;;;;;;;;;;;;;5066345;28;19946;-49
2023/01/09 11:47:44;;;;;;;;;;;;;;;;;;5065745;28;20369;-53
2023/01/09 11:50:10;;;;;;;;;;;;;;;;;;5066180;28;19946;-53
2023/01/09 11:52:36;;;;;;;;;;;;;;;;;;5065579;28;19951;-50
2023/01/09 11:55:03;;;;;;;;;;;;;;;;;;5065372;28;20294;-53
2023/01/09 11:57:29;;;;;;;;;;;;;;;;;;5065137;28;19924;-55
2023/01/09 11:59:55;;;;;;;;;;;;;;;;;;5066288;28;19929;-52
2023/01/09 12:02:21;;;;;;;;;;;;;;;;;;5065693;28;20019;-52
2023/01/09 12:04:47;;;;;;;;;;;;;;;;;;5065296;28;19942;-52
2023/01/09 12:07:13;;;;;;;;;;;;;;;;;;5065857;28;19933;-48
2023/01/09 12:09:39;;;;;;;;;;;;;;;;;;5065007;28;20455;-52
2023/01/09 12:12:05;;;;;;;;;;;;;;;;;;5063642;28;19928;-53
2023/01/09 12:14:31;;;;;;;;;;;;;;;;;;5064791;28;19920;-48
2023/01/09 12:16:57;;;;;;;;;;;;;;;;;;5065504;28;20007;-56
2023/01/09 12:19:23;;;;;;;;;;;;;;;;;;5063695;28;19924;-51
2023/01/09 12:21:49;;;;;;;;;;;;;;;;;;5050174;28;19932;-55
2023/01/09 12:24:15;;;;;;;;;;;;;;;;;;5064807;28;19961;-49
2023/01/09 12:26:41;;;;;;;;;;;;;;;;;;5063485;28;20302;-54
2023/01/09 12:29:07;;;;;;;;;;;;;;;;;;5064062;28;20576;-53
2023/01/09 12:31:33;;;;;;;;;;;;;;;;;;5064138;28;19932;-53
2023/01/09 12:33:59;;;;;;;;;;;;;;;;;;5064741;28;19950;-55
2023/01/09 12:36:25;;;;;;;;;;;;;;;;;;5065174;28;19953;-55
2023/01/09 12:38:51;;;;;;;;;;;;;;;;;;5064279;28;19925;-53
2023/01/09 12:41:20;;;;;;;;;;;;;;;;;;5063699;28;19928;-52
2023/01/09 12:43:46;;;;;;;;;;;;;;;;;;5060887;28;20386;-52
2023/01/09 12:46:12;;;;;;;;;;;;;;;;;;5062941;28;19927;-53
2023/01/09 12:48:38;;;;;;;;;;;;;;;;;;5063391;28;19931;-54
2023/01/09 12:51:04;;;;;;;;;;;;;;;;;;5064237;28;19939;-49
2023/01/09 12:53:31;;;;;;;;;;;;;;;;;;5064039;28;20033;-53
2023/01/09 12:55:57;;;;;;;;;;;;;;;;;;5064033;28;19925;-54
2023/01/09 12:58:23;;;;;;;;;;;;;;;;;;5063913;28;19920;-51
2023/01/09 13:00:49;;;;;;;;;;;;;;;;;;5064457;28;20452;-50
2023/01/09 13:03:15;;;;;;;;;;;;;;;;;;5064612;28;19924;-50
2023/01/09 13:05:41;;;;;;;;;;;;;;;;;;5064537;28;19925;-52
2023/01/09 13:08:07;;;;;;;;;;;;;;;;;;5063658;28;19939;-55
2023/01/09 13:10:33;;;;;;;;;;;;;;;;;;5064271;28;20405;-56
2023/01/09 13:12:59;;;;;;;;;;;;;;;;;;5063677;28;19924;-57
2023/01/09 13:15:25;;;;;;;;;;;;;;;;;;5064818;28;19960;-53
2023/01/09 13:17:51;;;;;;;;;;;;;;;;;;5048355;28;20408;-54
2023/01/09 13:20:17;;;;;;;;;;;;;;;;;;5064509;28;19932;-54
2023/01/09 13:22:48;;;;;;;;;;;;;;;;;;5064338;28;20281;-53
2023/01/09 13:25:14;;;;;;;;;;;;;;;;;;5064632;28;20420;-54
2023/01/09 13:27:40;;;;;;;;;;;;;;;;;;5063649;28;20484;-52
2023/01/09 13:30:06;;;;;;;;;;;;;;;;;;5063857;28;19956;-56
2023/01/09 13:32:32;;;;;;;;;;;;;;;;;;5064335;28;19925;-51
2023/01/09 13:35:00;;;;;;;;;;;;;;;;;;5064713;28;20277;-55
2023/01/09 13:37:26;;;;;;;;;;;;;;;;;;5064520;28;19925;-51
2023/01/09 13:39:52;;;;;;;;;;;;;;;;;;5064388;28;19931;-51
2023/01/09 13:45:02;;;;;;;;;;;;;;;;;;5064018;28;19924;-55
2023/01/09 13:47:28;;;;;;;;;;;;;;;;;;5063865;28;19932;-54
2023/01/09 13:49:54;;;;;;;;;;;;;;;;;;5064225;28;20293;-55
2023/01/09 13:52:20;;;;;;;;;;;;;;;;;;5063330;28;19924;-51
2023/01/09 13:54:46;;;;;;;;;;;;;;;;;;5064461;28;19924;-53
2023/01/09 13:57:12;;;;;;;;;;;;;;;;;;5063943;28;19940;-55
2023/01/09 13:59:38;;;;;;;;;;;;;;;;;;5067616;28;20034;-54
2023/01/09 14:02:04;;;;;;;;;;;;;;;;;;5068809;28;20354;-51
2023/01/09 14:04:31;;;;;;;;;;;;;;;;;;5069477;28;20057;-54
2023/01/09 14:06:57;;;;;;;;;;;;;;;;;;5069024;28;19932;-56
2023/01/09 14:09:23;;;;;;;;;;;;;;;;;;5068188;28;19943;-50
2023/01/09 14:11:49;;;;;;;;;;;;;;;;;;5067518;28;19932;-56
2023/01/09 14:14:15;;;;;;;;;;;;;;;;;;5068064;28;20007;-52
2023/01/09 14:16:41;;;;;;;;;;;;;;;;;;5052259;28;20002;-52
2023/01/09 14:19:07;;;;;;;;;;;;;;;;;;5052959;28;19928;-53
2023/01/09 14:21:33;;;;;;;;;;;;;;;;;;5058802;28;19932;-54
2023/01/09 14:23:59;;;;;;;;;;;;;;;;;;5049453;28;19925;-58
2023/01/09 14:26:25;;;;;;;;;;;;;;;;;;5050799;28;20333;-55
2023/01/09 14:28:51;;;;;;;;;;;;;;;;;;5054461;28;20388;-55
2023/01/09 14:31:17;;;;;;;;;;;;;;;;;;5059465;28;19928;-51
2023/01/09 14:33:43;;;;;;;;;;;;;;;;;;5067666;28;20368;-56
2023/01/09 14:36:09;;;;;;;;;;;;;;;;;;5068079;28;20335;-56
2023/01/09 14:38:35;;;;;;;;;;;;;;;;;;5059313;28;19971;-56
2023/01/09 14:41:01;;;;;;;;;;;;;;;;;;5066989;28;19979;-55
2023/01/09 14:43:27;;;;;;;;;;;;;;;;;;5067963;28;20362;-54
2023/01/09 14:45:53;;;;;;;;;;;;;;;;;;5066507;28;19966;-53
2023/01/09 14:48:21;;;;;;;;;;;;;;;;;;5067353;28;19990;-55
2023/01/09 14:50:49;;;;;;;;;;;;;;;;;;5067144;28;20587;-56
2023/01/09 14:53:15;;;;;;;;;;;;;;;;;;5067843;28;19925;-54
2023/01/09 14:55:42;;;;;;;;;;;;;;;;;;5069328;28;19936;-58
2023/01/09 14:58:08;;;;;;;;;;;;;;;;;;5067498;28;19925;-56
2023/01/09 15:00:34;;;;;;;;;;;;;;;;;;5067742;28;20267;-54
2023/01/09 15:03:00;;;;;;;;;;;;;;;;;;5066180;28;19978;-53
2023/01/09 15:05:26;;;;;;;;;;;;;;;;;;5066358;28;19932;-54
2023/01/09 15:07:52;;;;;;;;;;;;;;;;;;5066011;28;19925;-55
2023/01/09 15:10:18;;;;;;;;;;;;;;;;;;5063442;28;19928;-53
2023/01/09 15:12:45;;;;;;;;;;;;;;;;;;5066311;28;20007;-53
2023/01/09 15:15:11;;;;;;;;;;;;;;;;;;5066481;28;20436;-55
2023/01/09 15:17:38;;;;;;;;;;;;;;;;;;5065564;28;20377;-53
2023/01/09 15:20:04;;;;;;;;;;;;;;;;;;5066238;28;20308;-51
2023/01/09 15:22:30;;;;;;;;;;;;;;;;;;5066078;28;19931;-53
2023/01/09 15:24:56;;;;;;;;;;;;;;;;;;5066846;28;20309;-54
2023/01/09 15:27:22;;;;;;;;;;;;;;;;;;5065965;28;20371;-51
2023/01/09 15:29:49;;;;;;;;;;;;;;;;;;5065241;28;20787;-52
2023/01/09 15:32:15;;;;;;;;;;;;;;;;;;5065994;28;19947;-52
2023/01/09 15:34:41;;;;;;;;;;;;;;;;;;5066507;28;19924;-56
2023/01/09 15:37:07;;;;;;;;;;;;;;;;;;5066418;28;19932;-52
2023/01/09 15:39:33;;;;;;;;;;;;;;;;;;5065768;28;20329;-53
2023/01/09 15:44:44;;;;;;;;;;;;;;;;;;5063856;28;19950;-51
2023/01/09 15:47:10;;;;;;;;;;;;;;;;;;5048684;28;19981;-56
2023/01/09 15:49:36;;;;;;;;;;;;;;;;;;5065610;28;19982;-54
2023/01/09 15:52:03;;;;;;;;;;;;;;;;;;5065881;28;19924;-55
2023/01/09 15:54:29;;;;;;;;;;;;;;;;;;5066133;28;19974;-56
2023/01/09 15:56:55;;;;;;;;;;;;;;;;;;5065988;28;19960;-51
2023/01/09 15:59:21;;;;;;;;;;;;;;;;;;5065890;28;19932;-54
2023/01/09 16:03:08;;;;;;;;;;;;;;;;;;5065994;28;19925;-53
2023/01/09 16:04:33;;;;;;;;;;;;;;;;;;5064832;28;19924;-55
2023/01/09 16:06:59;;;;;;;;;;;;;;;;;;5065030;28;19925;-56
2023/01/09 16:09:25;;;;;;;;;;;;;;;;;;5065401;28;19931;-55
2023/01/09 16:11:51;;;;;;;;;;;;;;;;;;5064609;28;20270;-55
2023/01/09 16:14:17;;;;;;;;;;;;;;;;;;5065409;28;19920;-55
2023/01/09 16:16:43;;;;;;;;;;;;;;;;;;5065760;28;20464;-54
2023/01/09 16:19:09;;;;;;;;;;;;;;;;;;5064961;28;20425;-52
2023/01/09 16:21:36;;;;;;;;;;;;;;;;;;5064510;28;19937;-55
2023/01/09 16:24:02;;;;;;;;;;;;;;;;;;5063619;28;19964;-56
2023/01/09 16:26:28;;;;;;;;;;;;;;;;;;5066308;28;20357;-56
2023/01/09 16:28:54;;;;;;;;;;;;;;;;;;5066588;28;20332;-55
2023/01/09 16:31:22;;;;;;;;;;;;;;;;;;5065865;28;19931;-52
2023/01/09 16:33:50;;;;;;;;;;;;;;;;;;5065515;28;19924;-54
2023/01/09 16:36:17;;;;;;;;;;;;;;;;;;5057271;28;20537;-52
2023/01/09 16:38:43;;;;;;;;;;;;;;;;;;5065616;28;19926;-56
2023/01/09 16:43:54;;;;;;;;;;;;;;;;;;5065876;28;19929;-56
2023/01/09 16:46:20;;;;;;;;;;;;;;;;;;5065655;28;19925;-54
2023/01/09 16:48:46;;;;;;;;;;;;;;;;;;5063963;28;20378;-55
2023/01/09 16:51:12;;;;;;;;;;;;;;;;;;5062683;28;20497;-54
2023/01/09 16:53:38;;;;;;;;;;;;;;;;;;5064161;28;20377;-54
2023/01/09 16:56:05;;;;;;;;;;;;;;;;;;5063029;28;19924;-55
2023/01/09 16:58:31;;;;;;;;;;;;;;;;;;5063970;28;19980;-56
2023/01/09 17:00:57;;;;;;;;;;;;;;;;;;5064217;28;19924;-56